createdAt,value
2022-10-17T00:00:55.247Z,2.20
2022-10-17T00:03:21.743Z,1.70
2022-10-17T00:05:49.191Z,1.80
2022-10-17T00:08:17.717Z,1.60
2022-10-17T00:10:44.752Z,2.42
2022-10-17T00:13:12.128Z,1.83
2022-10-17T00:15:42.699Z,1.75
2022-10-17T00:18:13.266Z,1.80
2022-10-17T00:20:39.750Z,1.60
2022-10-17T00:23:06.150Z,1.90
2022-10-17T00:25:32.848Z,1.80
2022-10-17T00:27:59.263Z,1.70
2022-10-17T00:30:25.704Z,1.55
2022-10-17T00:32:53.141Z,2.10
2022-10-17T00:35:19.625Z,1.88
2022-10-17T00:37:46.130Z,1.95
2022-10-17T00:40:12.639Z,1.63
2022-10-17T00:42:39.080Z,2.42
2022-10-17T00:45:18.818Z,1.67
2022-10-17T00:47:50.903Z,1.80
2022-10-17T00:50:19.414Z,1.85
2022-10-17T00:52:46.853Z,1.73
2022-10-17T00:55:21.695Z,1.88
2022-10-17T00:57:48.554Z,1.77
2022-10-17T01:00:16.594Z,1.80
2022-10-17T01:02:43.519Z,2.00
2022-10-17T01:05:10.696Z,1.70
2022-10-17T01:07:39.503Z,2.00
2022-10-17T01:10:07.516Z,1.58
2022-10-17T01:12:43.174Z,2.10
2022-10-17T01:15:26.092Z,2.00
2022-10-17T01:18:01.514Z,1.80
2022-10-17T01:20:43.126Z,1.75
2022-10-17T01:23:48.844Z,1.60
2022-10-17T01:26:49.260Z,1.42
2022-10-17T01:29:31.684Z,2.20
2022-10-17T01:32:05.172Z,1.67
2022-10-17T01:35:07.750Z,1.70
2022-10-17T01:37:47.569Z,2.05
2022-10-17T01:40:41.752Z,1.60
2022-10-17T01:43:16.913Z,1.92
2022-10-17T01:45:50.647Z,1.80
2022-10-17T01:48:26.476Z,1.63
2022-10-17T01:51:01.466Z,1.80
2022-10-17T01:53:33.160Z,1.83
2022-10-17T01:56:02.749Z,1.63
2022-10-17T01:58:34.008Z,1.60
2022-10-17T02:01:05.611Z,1.90
2022-10-17T02:03:34.490Z,1.83
2022-10-17T02:06:01.807Z,1.70
2022-10-17T02:08:40.330Z,1.67
2022-10-17T02:11:27.624Z,1.77
2022-10-17T02:14:00.058Z,1.55
2022-10-17T02:16:35.564Z,2.20
2022-10-17T02:19:31.416Z,1.45
2022-10-17T02:22:32.406Z,1.92
2022-10-17T02:25:02.551Z,1.77
2022-10-17T02:27:34.891Z,1.50
2022-10-17T02:30:05.413Z,2.05
2022-10-17T02:33:01.892Z,1.80
2022-10-17T02:35:34.253Z,1.45
2022-10-17T02:38:02.375Z,1.58
2022-10-17T02:40:30.345Z,1.60
2022-10-17T02:42:59.346Z,1.98
2022-10-17T02:45:28.315Z,1.35
2022-10-17T02:48:05.720Z,1.95
2022-10-17T02:50:41.395Z,1.30
2022-10-17T02:53:17.070Z,1.77
2022-10-17T02:55:51.332Z,1.35
2022-10-17T02:58:25.614Z,2.35
2022-10-17T03:00:52.648Z,1.70
2022-10-17T03:03:31.329Z,1.65
2022-10-17T03:05:57.940Z,1.70
2022-10-17T03:08:24.828Z,1.65
2022-10-17T03:10:51.494Z,2.05
2022-10-17T03:13:18.894Z,1.63
2022-10-17T03:15:45.441Z,1.73
2022-10-17T03:18:12.165Z,1.50
2022-10-17T03:20:38.725Z,1.73
2022-10-17T03:23:05.246Z,1.60
2022-10-17T03:25:32.009Z,2.00
2022-10-17T03:28:00.428Z,1.73
2022-10-17T03:30:27.471Z,1.80
2022-10-17T03:32:54.074Z,1.58
2022-10-17T03:35:20.544Z,2.08
2022-10-17T03:37:46.954Z,1.80
2022-10-17T03:40:13.392Z,2.05
2022-10-17T03:42:40.435Z,1.58
2022-10-17T03:45:07.167Z,1.80
2022-10-17T03:47:33.573Z,1.65
2022-10-17T03:50:00.084Z,1.60
2022-10-17T03:52:26.511Z,1.30
2022-10-17T03:54:53.008Z,1.92
2022-10-17T03:57:19.587Z,1.35
2022-10-17T03:59:46.026Z,1.90
2022-10-17T04:02:12.505Z,1.95
2022-10-17T04:04:38.941Z,1.80
2022-10-17T04:07:05.380Z,1.50
2022-10-17T04:09:31.904Z,1.55
2022-10-17T04:11:58.287Z,1.75
2022-10-17T04:14:25.837Z,1.70
2022-10-17T04:16:53.561Z,1.90
2022-10-17T04:19:20.152Z,1.70
2022-10-17T04:21:48.261Z,1.52
2022-10-17T04:24:15.092Z,1.77
2022-10-17T04:26:41.577Z,1.95
2022-10-17T04:29:08.042Z,1.58
2022-10-17T04:31:34.545Z,1.58
2022-10-17T04:34:00.979Z,2.08
2022-10-17T04:36:31.688Z,2.22
2022-10-17T04:38:58.087Z,1.92
2022-10-17T04:41:25.829Z,1.80
2022-10-17T04:43:52.236Z,2.13
2022-10-17T04:46:18.661Z,2.33
2022-10-17T04:48:45.221Z,1.83
2022-10-17T04:51:14.344Z,2.42
2022-10-17T04:53:42.521Z,1.77
2022-10-17T04:56:13.652Z,2.08
2022-10-17T04:58:41.142Z,2.10
2022-10-17T05:01:10.312Z,2.00
2022-10-17T05:03:37.128Z,2.15
2022-10-17T05:06:18.975Z,2.55
2022-10-17T05:08:46.192Z,2.20
2022-10-17T05:11:29.268Z,1.90
2022-10-17T05:13:58.060Z,1.88
2022-10-17T05:16:25.785Z,2.22
2022-10-17T05:18:54.452Z,2.30
2022-10-17T05:21:22.169Z,1.67
2022-10-17T05:23:48.680Z,1.90
2022-10-17T05:26:15.502Z,1.90
2022-10-17T05:28:42.001Z,1.98
2022-10-17T05:31:11.006Z,2.10
2022-10-17T05:33:38.827Z,2.17
2022-10-17T05:36:06.589Z,1.88
2022-10-17T05:38:33.151Z,2.22
2022-10-17T05:41:00.802Z,2.35
2022-10-17T05:43:28.027Z,2.20
2022-10-17T05:45:56.123Z,2.10
2022-10-17T05:48:23.864Z,2.58
2022-10-17T05:50:50.286Z,2.30
2022-10-17T05:53:17.067Z,2.38
2022-10-17T05:55:43.474Z,2.08
2022-10-17T05:58:17.599Z,2.10
2022-10-17T06:00:48.738Z,2.13
2022-10-17T06:03:15.143Z,1.88
2022-10-17T06:05:41.563Z,2.20
2022-10-17T06:08:07.994Z,4.15
2022-10-17T06:10:34.400Z,2.90
2022-10-17T06:13:00.808Z,2.25
2022-10-17T06:15:27.297Z,2.55
2022-10-17T06:17:53.700Z,2.17
2022-10-17T06:20:20.158Z,2.33
2022-10-17T06:22:46.579Z,2.55
2022-10-17T06:25:13.131Z,2.58
2022-10-17T06:27:39.626Z,3.00
2022-10-17T06:30:06.655Z,3.60
2022-10-17T06:32:33.085Z,3.38
2022-10-17T06:34:59.754Z,3.47
2022-10-17T06:37:26.524Z,4.35
2022-10-17T06:39:53.610Z,3.42
2022-10-17T06:42:20.021Z,3.20
2022-10-17T06:44:46.422Z,2.70
2022-10-17T06:47:15.407Z,3.08
2022-10-17T06:49:44.401Z,3.15
2022-10-17T06:52:11.068Z,3.20
2022-10-17T06:54:37.487Z,3.22
2022-10-17T06:57:03.935Z,2.85
2022-10-17T06:59:30.330Z,3.10
2022-10-17T07:01:56.734Z,3.28
2022-10-17T07:04:23.115Z,3.10
2022-10-17T07:06:49.716Z,2.75
2022-10-17T07:09:17.036Z,3.20
2022-10-17T07:11:43.456Z,3.60
2022-10-17T07:14:09.920Z,3.25
2022-10-17T07:16:36.328Z,4.20
2022-10-17T07:19:03.092Z,4.20
2022-10-17T07:21:29.518Z,3.63
2022-10-17T07:23:55.994Z,3.92
2022-10-17T07:26:22.705Z,3.78
2022-10-17T07:28:53.394Z,3.60
2022-10-17T07:31:22.335Z,3.28
2022-10-17T07:33:49.173Z,3.25
2022-10-17T07:36:15.847Z,3.25
2022-10-17T07:38:42.289Z,3.10
2022-10-17T07:41:10.871Z,2.60
2022-10-17T07:43:37.550Z,3.28
2022-10-17T07:46:05.852Z,3.67
2022-10-17T07:48:32.573Z,3.33
2022-10-17T07:51:02.527Z,3.50
2022-10-17T07:53:29.140Z,3.40
2022-10-17T07:55:55.532Z,3.03
2022-10-17T07:58:21.972Z,3.30
2022-10-17T08:00:49.056Z,3.17
2022-10-17T08:03:15.606Z,2.80
2022-10-17T08:05:42.103Z,3.22
2022-10-17T08:08:08.921Z,3.22
2022-10-17T08:10:35.438Z,2.65
2022-10-17T08:13:01.857Z,2.88
2022-10-17T08:15:31.707Z,3.08
2022-10-17T08:17:59.344Z,3.22
2022-10-17T08:20:25.779Z,2.80
2022-10-17T08:22:53.496Z,2.60
2022-10-17T08:25:20.706Z,2.63
2022-10-17T08:27:47.264Z,2.67
2022-10-17T08:30:13.781Z,2.85
2022-10-17T08:32:40.534Z,3.00
2022-10-17T08:35:07.226Z,2.53
2022-10-17T08:37:38.608Z,2.90
2022-10-17T08:40:05.573Z,2.80
2022-10-17T08:42:59.958Z,2.75
2022-10-17T08:45:36.466Z,2.55
2022-10-17T08:50:38.264Z,2.63
2022-10-17T08:53:28.019Z,2.42
2022-10-17T08:55:55.082Z,2.85
2022-10-17T08:58:26.246Z,2.65
2022-10-17T09:01:26.115Z,2.33
2022-10-17T09:04:26.689Z,2.67
2022-10-17T09:07:19.193Z,2.50
2022-10-17T09:10:03.645Z,2.33
2022-10-17T09:12:58.001Z,2.08
2022-10-17T09:15:50.563Z,2.38
2022-10-17T09:18:27.762Z,2.05
2022-10-17T09:21:00.306Z,2.33
2022-10-17T09:23:45.210Z,1.92
2022-10-17T09:26:12.436Z,2.10
2022-10-17T09:28:41.457Z,2.03
2022-10-17T09:31:19.959Z,2.05
2022-10-17T09:33:55.632Z,2.22
2022-10-17T09:36:29.496Z,2.20
2022-10-17T09:39:02.161Z,1.80
2022-10-17T09:41:51.565Z,1.88
2022-10-17T09:44:17.945Z,2.08
2022-10-17T09:46:58.962Z,1.92
2022-10-17T09:49:43.634Z,2.00
2022-10-17T09:52:18.066Z,2.03
2022-10-17T09:54:49.484Z,1.60
2022-10-17T09:57:18.338Z,2.33
2022-10-17T09:59:56.551Z,2.67
2022-10-17T10:02:24.691Z,2.10
2022-10-17T10:05:16.475Z,1.92
2022-10-17T10:08:00.283Z,1.60
2022-10-17T10:10:28.824Z,1.90
2022-10-17T10:13:06.506Z,1.60
2022-10-17T10:15:38.991Z,1.80
2022-10-17T10:18:25.403Z,1.40
2022-10-17T10:21:12.444Z,1.55
2022-10-17T10:26:25.776Z,1.60
2022-10-17T10:29:19.948Z,1.58
2022-10-17T10:31:47.240Z,1.38
2022-10-17T10:34:30.078Z,1.60
2022-10-17T10:37:01.851Z,1.40
2022-10-17T10:39:43.080Z,1.60
2022-10-17T10:42:21.971Z,1.58
2022-10-17T10:44:49.683Z,1.10
2022-10-17T10:47:20.916Z,1.27
2022-10-17T10:49:50.147Z,1.20
2022-10-17T10:52:27.709Z,1.30
2022-10-17T10:55:03.538Z,1.20
2022-10-17T10:57:33.343Z,1.17
2022-10-17T11:00:19.415Z,1.20
2022-10-17T11:02:55.176Z,1.10
2022-10-17T11:05:48.002Z,0.98
2022-10-17T11:08:20.499Z,1.10
2022-10-17T11:11:13.743Z,1.10
2022-10-17T11:13:49.642Z,1.00
2022-10-17T11:16:35.711Z,1.10
2022-10-17T11:19:05.198Z,1.42
2022-10-17T11:21:47.241Z,1.33
2022-10-17T11:24:38.733Z,1.50
2022-10-17T11:27:07.123Z,1.27
2022-10-17T11:29:41.255Z,1.30
2022-10-17T11:32:16.607Z,1.10
2022-10-17T11:34:47.680Z,1.60
2022-10-17T11:37:28.703Z,1.33
2022-10-17T11:40:00.866Z,1.70
2022-10-17T11:42:40.700Z,1.45
2022-10-17T11:45:16.931Z,1.35
2022-10-17T11:53:30.068Z,1.63
2022-10-17T11:55:59.076Z,1.48
2022-10-17T11:58:45.697Z,1.50
2022-10-17T12:01:59.843Z,1.60
2022-10-17T12:04:52.687Z,1.73
2022-10-17T12:07:48.210Z,1.75
2022-10-17T12:10:51.599Z,1.70
2022-10-17T12:13:33.226Z,1.48
2022-10-17T12:16:24.737Z,1.60
2022-10-17T12:19:06.299Z,1.70
2022-10-17T12:21:55.797Z,2.10
2022-10-17T12:24:34.948Z,1.65
2022-10-17T12:27:39.997Z,2.10
2022-10-17T12:30:16.806Z,1.67
2022-10-17T12:33:13.387Z,1.70
2022-10-17T12:35:40.824Z,1.35
2022-10-17T12:38:37.291Z,1.90
2022-10-17T12:41:05.391Z,1.52
2022-10-17T12:43:38.311Z,1.58
2022-10-17T12:46:08.447Z,1.48
2022-10-17T12:48:34.812Z,1.30
2022-10-17T12:54:14.814Z,1.40
2022-10-17T12:56:49.567Z,1.90
2022-10-17T12:59:20.702Z,1.52
2022-10-17T13:01:58.778Z,1.38
2022-10-17T13:04:36.766Z,1.60
2022-10-17T13:07:04.092Z,1.55
2022-10-17T13:09:37.564Z,1.38
2022-10-17T13:12:10.930Z,1.65
2022-10-17T13:14:40.338Z,1.50
2022-10-17T13:17:25.081Z,1.40
2022-10-17T13:19:52.735Z,1.45
2022-10-17T13:22:28.674Z,1.40
2022-10-17T13:25:08.531Z,1.50
2022-10-17T13:27:36.531Z,1.52
2022-10-17T13:30:21.096Z,1.58
2022-10-17T13:32:53.951Z,1.40
2022-10-17T13:36:01.873Z,1.73
2022-10-17T13:38:35.685Z,1.63
2022-10-17T13:41:34.304Z,1.90
2022-10-17T13:43:58.565Z,1.90
2022-10-17T13:46:37.903Z,1.83
2022-10-17T13:49:27.972Z,2.10
2022-10-17T13:51:56.297Z,1.70
2022-10-17T13:54:45.950Z,1.48
2022-10-17T13:57:28.473Z,1.50
2022-10-17T14:00:23.070Z,1.80
2022-10-17T14:02:49.583Z,1.25
2022-10-17T14:05:20.336Z,1.63
2022-10-17T14:08:21.700Z,1.98
2022-10-17T14:10:47.408Z,1.50
2022-10-17T14:13:31.167Z,1.50
2022-10-17T14:16:01.412Z,1.33
2022-10-17T14:18:35.891Z,1.58
2022-10-17T14:23:51.560Z,1.73
2022-10-17T14:26:22.846Z,1.70
2022-10-17T14:29:03.478Z,1.58
2022-10-17T14:31:33.087Z,1.77
2022-10-17T14:34:01.295Z,1.80
2022-10-17T14:36:40.107Z,1.92
2022-10-17T14:39:20.847Z,1.50
2022-10-17T14:41:50.471Z,1.90
2022-10-17T14:44:30.356Z,1.90
2022-10-17T14:47:38.091Z,1.42
2022-10-17T14:50:16.924Z,1.70
2022-10-17T14:53:02.929Z,1.58
2022-10-17T14:55:31.223Z,1.73
2022-10-17T14:57:58.506Z,1.88
2022-10-17T15:00:25.835Z,1.92
2022-10-17T15:02:54.261Z,1.70
2022-10-17T15:05:23.049Z,1.67
2022-10-17T15:07:49.456Z,1.58
2022-10-17T15:10:35.806Z,1.98
2022-10-17T15:13:27.055Z,1.70
2022-10-17T15:15:52.000Z,1.70
2022-10-17T15:18:18.771Z,2.00
2022-10-17T15:20:45.215Z,2.10
2022-10-17T15:23:11.662Z,2.10
2022-10-17T15:25:39.077Z,2.05
2022-10-17T15:28:05.603Z,1.85
2022-10-17T15:30:35.612Z,1.75
2022-10-17T15:33:02.034Z,1.90
2022-10-17T19:53:22.095Z,3.13
2022-10-17T19:55:52.569Z,3.22
2022-10-17T19:58:19.755Z,3.10
2022-10-17T20:00:51.799Z,4.00
2022-10-17T20:03:19.168Z,3.45
2022-10-17T20:05:45.845Z,3.67
2022-10-17T20:08:13.866Z,3.80
2022-10-17T20:10:41.214Z,3.50
2022-10-17T20:13:14.970Z,3.53
2022-10-17T20:15:41.406Z,3.35
2022-10-17T20:18:20.399Z,3.75
2022-10-17T20:20:46.787Z,3.78
2022-10-17T20:23:13.212Z,3.90
2022-10-17T20:25:39.733Z,3.97
2022-10-17T20:28:06.456Z,3.35
2022-10-17T20:30:34.121Z,3.40
2022-10-17T20:33:00.502Z,3.70
2022-10-17T20:35:26.925Z,3.92
2022-10-17T20:37:53.331Z,3.45
2022-10-17T20:40:35.955Z,3.20
2022-10-17T20:43:04.133Z,3.17
2022-10-17T20:45:44.226Z,3.33
2022-10-17T20:50:44.329Z,3.40
2022-10-17T20:53:35.442Z,3.35
2022-10-17T20:56:07.455Z,3.53
2022-10-17T20:58:33.991Z,3.23
2022-10-17T21:01:06.507Z,3.00
2022-10-17T21:03:37.107Z,3.42
2022-10-17T21:06:05.424Z,3.40
2022-10-17T21:08:31.830Z,3.42
2022-10-17T21:11:08.425Z,3.17
2022-10-17T21:13:34.794Z,3.05
2022-10-17T21:16:09.611Z,3.25
2022-10-17T21:18:36.331Z,3.67
2022-10-17T21:21:18.190Z,3.10
2022-10-17T21:23:46.101Z,3.00
2022-10-17T21:26:13.449Z,3.13
2022-10-17T21:28:41.067Z,3.50
2022-10-17T21:31:13.901Z,3.50
2022-10-17T21:33:41.582Z,3.60
2022-10-17T21:36:08.884Z,3.72
2022-10-17T21:38:39.547Z,3.40
2022-10-17T21:41:07.951Z,3.53
2022-10-17T21:43:35.571Z,3.47
2022-10-17T21:46:07.346Z,3.30
2022-10-17T21:48:34.205Z,3.78
2022-10-17T21:51:05.237Z,3.88
2022-10-17T21:53:32.369Z,3.75
2022-10-17T21:56:00.726Z,4.22
2022-10-17T21:58:27.997Z,3.45
2022-10-17T22:01:02.523Z,3.92
2022-10-17T22:03:28.932Z,3.90
2022-10-17T22:06:06.836Z,3.58
2022-10-17T22:08:38.843Z,3.13
2022-10-17T22:11:13.406Z,3.47
2022-10-17T22:13:40.884Z,3.30
2022-10-17T22:16:13.430Z,3.28
2022-10-17T22:18:40.678Z,3.55
2022-10-17T22:21:10.963Z,4.45
2022-10-17T22:23:38.269Z,3.80
2022-10-17T22:26:05.923Z,3.65
2022-10-17T22:28:33.273Z,3.13
2022-10-17T22:30:59.771Z,3.58
2022-10-17T22:33:26.297Z,3.25
2022-10-17T22:35:52.735Z,2.90
2022-10-17T22:38:19.384Z,3.20
2022-10-17T22:40:46.450Z,3.30
2022-10-17T22:43:13.679Z,3.35
2022-10-17T22:45:40.377Z,3.80
2022-10-17T22:48:07.946Z,3.55
2022-10-17T22:50:34.495Z,3.05
2022-10-17T22:53:00.891Z,3.15
2022-10-17T22:55:27.537Z,3.20
2022-10-17T22:57:53.993Z,3.20
2022-10-17T23:00:20.605Z,3.20
2022-10-17T23:02:47.043Z,3.38
2022-10-17T23:05:13.612Z,3.15
2022-10-17T23:07:39.987Z,3.30
2022-10-17T23:10:06.772Z,3.13
2022-10-17T23:12:33.293Z,3.10
2022-10-17T23:14:59.902Z,3.03
2022-10-17T23:17:26.302Z,3.00
2022-10-17T23:19:57.713Z,3.25
2022-10-17T23:22:24.223Z,3.22
2022-10-17T23:24:50.648Z,3.25
2022-10-17T23:27:17.083Z,3.47
2022-10-17T23:29:43.550Z,3.40
2022-10-17T23:32:09.950Z,3.28
2022-10-17T23:34:36.366Z,3.40
2022-10-17T23:37:02.785Z,3.97
2022-10-17T23:39:29.153Z,3.40
2022-10-17T23:41:55.537Z,3.10
2022-10-17T23:44:23.427Z,3.83
2022-10-17T23:46:49.849Z,3.88
2022-10-17T23:49:16.205Z,3.97
2022-10-17T23:51:42.602Z,3.83
2022-10-17T23:54:11.052Z,3.47
2022-10-17T23:56:37.489Z,3.75
2022-10-17T23:59:03.965Z,3.65
